Mount Hulda, Missouri
Current Conditions -  °F | °C
As of 9:53 AM on Wednesday 26 Nov 2014 (Local Time) from KDMO Reporting Station
Clear Clear  
Wind Chill: 33°   Ceiling: Unl
Heat Index: 40°   Visibility: 10mi
Dew Point: 32°   Wind: 13mph
Humidity: 73%   Direction: 260°W
Pressure: 29.96"   Gusts: 20mph
Location:  38.4446°N, 93.178°W
Report Text: KDMO 261553Z AUTO 26011G17KT 10SM CLR 04/00 A2996 RMK AO2 SLP152 T00440000
Loading
Personal Weather Stations






























Interactive Weather Map New forecast layout! Learn more

10-Day Weather Forecast

Advertisements
Track Severe Weather on mobile